LEZLLEGR

Guest
Details From LEZL - Sevilla
To LEGR - Granada
Flight Number -
Tags generated
Created
Modified
Stats Distance 102 nm / 189 km
Max Altitude 3,800 ft / 1,158 m
Waypoints 3
Social Downloads 7
Likes 0
Share VATSIM

Download

Looking for another format? Having issues loading an existing format? Contact us
Advertisement - Login to hide

Notes

Basic altitude profile: - Ascent Rate: 2500ft/min - Ascent Speed: 250kts - Cruise Altitude: 35000ft - Cruise Speed: 420kts - Descent Rate: 1500ft/min - Descent Speed: 250kts Options: - Use NATs: yes - Use PACOTS: yes - Use low airways: yes - Use high airways: yes

Route

LEZL LOJAS LEGR

ID Type Via Altitude Latitude Longitude Leg Dist Tot Dist Heading (true) Name
O LEZL APT - 0 ft / 0 m 37.41794˚ -5.89309˚ - 0 nm - Sevilla
LOJAS FIX - 3,800 ft / 1,158 m 37.20728˚ -4.15392˚ 84 nm 84 nm 98° / 99° -
O LEGR APT - 0 ft / 0 m 37.18873˚ -3.77736˚ 18 nm 102 nm 93° / 94° Granada

Altitude Profile

Advertisement - Login to hide

LEZL

Details ICAO LEZL (SVQ)
Name Sevilla
Region Spain
Timezone Europe/Madrid (UTC+2.0)
Stats Elevation 111 ft / 34 m (AMSL)
Location 37.417939° -5.893093°
Runways 1
Magnetic Variation 1.245° W

METAR

LEZL 221700Z 25004KT CAVOK 26/09 Q1013 NOSIG

Decode

TAF

TAF LEZL 221400Z 2215/2315 24004KT CAVOK TX27/2216Z TN15/2305Z

Decode

Departure Runways

ID Width Length Bearing (true) Bearing (mag) Surface Threshold Offset Overrun Length
09 148 ft / 45 m 11,008 ft / 3,355 m 89.75° 91.00° Asphalt 0 ft / 0 m 0 ft / 0 m
27 148 ft / 45 m 11,008 ft / 3,355 m 269.77° 271.02° Asphalt 0 ft / 0 m 0 ft / 0 m

LEGR

Details ICAO LEGR (GRX)
Name Granada
Region Spain
Timezone Europe/Madrid (UTC+2.0)
Stats Elevation 1,859 ft / 567 m (AMSL)
Location 37.188731° -3.777359°
Runways 1
Magnetic Variation 0.627° W

METAR

LEGR 221700Z 32003KT 230V010 9999 SCT070 26/08 Q1014

Decode

TAF

TAF LEGR 221400Z 2215/2315 22004KT 9999 SCT040 TX27/2314Z TN12/2305Z PROB30 TEMPO 2215/2218 4000 SHRA FEW030CB

Decode

Destination Runways

ID Width Length Bearing (true) Bearing (mag) Surface Threshold Offset Overrun Length
09 147 ft / 45 m 9,511 ft / 2,899 m 89.46° 90.09° Asphalt 0 ft / 0 m 0 ft / 0 m
27 147 ft / 45 m 9,511 ft / 2,899 m 269.48° 270.11° Asphalt 0 ft / 0 m 0 ft / 0 m

Approach Navaids

Runway Type Ident Frequency Range Bearing (true) Bearing (mag) Slope Elevation
09 Localiser GRD 109.30 MHz 18 nm / 33 km 89.49° 90.11° - 1,859 ft / 567 m (AMSL)
09 Glidescope GRD 109.30 MHz 10 nm / 19 km 89.47° 90.10° 3.00° 1,859 ft / 567 m (AMSL)

Popular Alternatives